createdAt,value
2023-01-30T00:00:46.901Z,101093.06
2023-01-30T00:03:49.591Z,101091.53
2023-01-30T00:06:52.083Z,101090.53
2023-01-30T00:09:54.781Z,101086.16
2023-01-30T00:12:57.207Z,101091.97
2023-01-30T00:15:59.864Z,101087.31
2023-01-30T00:19:02.374Z,101084.84
2023-01-30T00:22:05.357Z,101082.06
2023-01-30T00:25:07.965Z,101080.34
2023-01-30T00:28:10.725Z,101077.22
2023-01-30T00:31:13.017Z,101077.56
2023-01-30T00:34:15.842Z,101072.94
2023-01-30T00:37:18.133Z,101077.69
2023-01-30T00:40:20.975Z,101070.34
2023-01-30T00:43:42.059Z,101066.69
2023-01-30T00:47:03.352Z,101070.25
2023-01-30T00:50:05.952Z,101079.44
2023-01-30T00:53:10.010Z,101068.63
2023-01-30T00:56:14.047Z,101059.16
2023-01-30T00:59:17.295Z,101067.37
2023-01-30T01:02:20.834Z,101057.06
2023-01-30T01:05:23.733Z,101050.16
2023-01-30T01:08:26.384Z,101056.91
2023-01-30T01:11:29.017Z,101047.75
2023-01-30T01:14:31.514Z,101043.22
2023-01-30T01:17:34.707Z,101042.97
2023-01-30T01:20:37.202Z,101038.72
2023-01-30T01:23:39.897Z,101037.34
2023-01-30T01:26:42.909Z,101029.16
2023-01-30T01:29:46.798Z,101028.41
2023-01-30T01:32:50.495Z,101021.97
2023-01-30T01:35:56.703Z,101023.03
2023-01-30T01:38:59.475Z,101020.91
2023-01-30T01:42:02.079Z,101014.16
2023-01-30T01:45:12.690Z,101021.16
2023-01-30T01:48:19.326Z,101005.31
2023-01-30T01:51:21.762Z,101002.78
2023-01-30T01:54:44.644Z,101004.59
2023-01-30T01:58:16.393Z,100990.38
2023-01-30T02:01:19.464Z,100988.44
2023-01-30T02:04:42.123Z,100977.19
2023-01-30T02:08:04.693Z,100978.47
2023-01-30T02:11:10.777Z,100971.72
2023-01-30T02:14:14.502Z,100958.41
2023-01-30T02:17:17.119Z,100960.59
2023-01-30T02:20:32.309Z,100959.69
2023-01-30T02:23:40.813Z,100955.94
2023-01-30T02:27:12.487Z,100952.37
2023-01-30T02:30:34.409Z,100945.00
2023-01-30T02:33:36.827Z,100943.13
2023-01-30T02:37:02.561Z,100946.25
2023-01-30T02:40:13.915Z,100930.97
2023-01-30T02:43:23.819Z,100935.94
2023-01-30T02:46:32.085Z,100922.47
2023-01-30T02:49:48.896Z,100922.22
2023-01-30T02:52:51.315Z,100910.69
2023-01-30T02:55:53.885Z,100913.50
2023-01-30T02:59:02.417Z,100902.47
2023-01-30T03:02:12.215Z,100897.38
2023-01-30T03:05:14.921Z,100895.59
2023-01-30T03:08:30.714Z,100892.62
2023-01-30T03:11:44.677Z,100896.44
2023-01-30T03:14:53.631Z,100886.06
2023-01-30T03:17:56.145Z,100887.09
2023-01-30T03:21:03.796Z,100885.94
2023-01-30T03:24:06.392Z,100883.69
2023-01-30T03:27:10.989Z,100887.22
2023-01-30T03:30:13.644Z,100882.75
2023-01-30T03:33:16.683Z,100881.75
2023-01-30T03:36:21.776Z,100876.38
2023-01-30T03:39:25.294Z,100864.69
2023-01-30T03:42:27.744Z,100863.81
2023-01-30T03:45:30.554Z,100870.06
2023-01-30T03:48:33.879Z,100865.09
2023-01-30T03:51:36.755Z,100862.22
2023-01-30T03:54:39.061Z,100872.94
2023-01-30T03:57:42.055Z,100872.13
2023-01-30T04:00:45.584Z,100856.69
2023-01-30T04:03:48.490Z,100859.91
2023-01-30T04:06:51.331Z,100862.22
2023-01-30T04:09:54.752Z,100856.75
2023-01-30T04:12:57.219Z,100853.34
2023-01-30T04:16:17.367Z,100842.97
2023-01-30T04:19:24.618Z,100848.50
2023-01-30T04:22:27.325Z,100843.97
2023-01-30T04:25:29.807Z,100849.91
2023-01-30T04:28:33.366Z,100834.84
2023-01-30T04:31:36.232Z,100841.44
2023-01-30T04:34:39.684Z,100829.41
2023-01-30T04:37:42.075Z,100836.22
2023-01-30T04:40:48.386Z,100825.94
2023-01-30T04:43:50.956Z,100817.16
2023-01-30T04:46:54.238Z,100816.25
2023-01-30T04:49:57.363Z,100807.69
2023-01-30T04:53:00.911Z,100804.16
2023-01-30T04:56:03.447Z,100804.03
2023-01-30T04:59:09.672Z,100809.78
2023-01-30T05:02:12.297Z,100802.38
2023-01-30T05:05:14.987Z,100797.91
2023-01-30T05:08:17.413Z,100800.06
2023-01-30T05:11:23.133Z,100799.97
2023-01-30T05:14:25.528Z,100793.06
2023-01-30T05:17:28.260Z,100799.63
2023-01-30T05:20:30.858Z,100794.66
2023-01-30T05:23:33.905Z,100798.81
2023-01-30T05:26:36.389Z,100796.84
2023-01-30T05:29:39.012Z,100796.19
2023-01-30T05:32:41.477Z,100789.25
2023-01-30T05:35:48.061Z,100793.53
2023-01-30T05:38:50.746Z,100779.87
2023-01-30T05:41:53.441Z,100781.56
2023-01-30T05:44:55.762Z,100784.84
2023-01-30T05:48:01.257Z,100780.53
2023-01-30T05:51:04.042Z,100781.38
2023-01-30T05:54:06.700Z,100778.91
2023-01-30T05:57:09.064Z,100779.69
2023-01-30T06:00:12.367Z,100781.44
2023-01-30T06:03:15.097Z,100782.63
2023-01-30T06:06:17.845Z,100783.50
2023-01-30T06:09:20.172Z,100787.28
2023-01-30T06:12:22.886Z,100784.94
2023-01-30T06:15:25.318Z,100780.13
2023-01-30T06:18:28.255Z,100782.53
2023-01-30T06:21:30.959Z,100777.94
2023-01-30T06:24:33.528Z,100774.53
2023-01-30T06:27:36.192Z,100778.81
2023-01-30T06:30:39.014Z,100779.72
2023-01-30T06:33:41.420Z,100794.94
2023-01-30T06:36:44.125Z,100785.78
2023-01-30T06:39:46.713Z,100774.44
2023-01-30T06:42:49.994Z,100770.69
2023-01-30T06:45:52.376Z,100762.94
2023-01-30T06:48:55.158Z,100761.38
2023-01-30T06:51:57.474Z,100764.91
2023-01-30T06:55:00.152Z,100763.44
2023-01-30T06:58:02.983Z,100758.41
2023-01-30T07:01:05.824Z,100759.28
2023-01-30T07:04:08.564Z,100752.25
2023-01-30T07:07:11.209Z,100755.22
2023-01-30T07:10:13.597Z,100750.75
2023-01-30T07:13:17.094Z,100747.59
2023-01-30T07:16:19.796Z,100755.31
2023-01-30T07:19:22.553Z,100751.47
2023-01-30T07:22:25.067Z,100743.97
2023-01-30T07:25:28.681Z,100749.97
2023-01-30T07:28:31.265Z,100745.69
2023-01-30T07:31:34.020Z,100739.28
2023-01-30T07:34:36.473Z,100744.47
2023-01-30T07:37:39.159Z,100736.91
2023-01-30T07:40:41.433Z,100744.63
2023-01-30T07:43:44.099Z,100745.97
2023-01-30T07:47:09.179Z,100740.28
2023-01-30T07:50:11.917Z,100740.28
2023-01-30T07:53:15.717Z,100729.41
2023-01-30T07:56:19.946Z,100725.63
2023-01-30T07:59:22.250Z,100737.25
2023-01-30T08:02:25.177Z,100731.91
2023-01-30T08:05:27.852Z,100730.12
2023-01-30T08:08:30.489Z,100733.66
2023-01-30T08:11:33.549Z,100731.44
2023-01-30T08:14:35.926Z,100706.00
2023-01-30T08:17:38.522Z,100697.87
2023-01-30T08:20:42.737Z,100669.59
2023-01-30T08:23:45.342Z,100651.59
2023-01-30T08:26:48.334Z,100647.66
2023-01-30T08:29:51.048Z,100646.87
2023-01-30T08:33:00.428Z,100646.84
2023-01-30T08:36:03.021Z,100644.56
2023-01-30T08:39:05.390Z,100644.66
2023-01-30T08:42:08.215Z,100653.34
2023-01-30T08:45:11.615Z,100653.41
2023-01-30T08:48:14.274Z,100646.66
2023-01-30T08:51:16.854Z,100642.44
2023-01-30T08:54:20.158Z,100645.88
2023-01-30T08:57:22.597Z,100641.59
2023-01-30T09:00:25.352Z,100646.53
2023-01-30T09:03:27.684Z,100649.91
2023-01-30T09:06:30.701Z,100651.69
2023-01-30T09:09:33.076Z,100648.19
2023-01-30T09:12:36.115Z,100647.47
2023-01-30T09:15:41.791Z,100634.63
2023-01-30T09:18:44.828Z,100637.13
2023-01-30T09:21:48.660Z,100628.69
2023-01-30T09:24:51.298Z,100622.81
2023-01-30T09:27:53.732Z,100619.41
2023-01-30T09:30:57.743Z,100604.00
2023-01-30T09:34:00.161Z,100615.16
2023-01-30T09:37:05.155Z,100609.22
2023-01-30T09:40:14.468Z,100596.34
2023-01-30T09:43:17.913Z,100589.47
2023-01-30T09:46:29.516Z,100592.03
2023-01-30T09:49:35.317Z,100586.09
2023-01-30T09:52:38.070Z,100581.84
2023-01-30T09:55:44.310Z,100569.00
2023-01-30T09:58:51.867Z,100564.75
2023-01-30T10:01:59.910Z,100561.19
2023-01-30T10:05:03.489Z,100557.81
2023-01-30T10:08:20.973Z,100556.97
2023-01-30T10:11:23.734Z,100555.28
2023-01-30T10:14:38.399Z,100535.63
2023-01-30T10:17:49.462Z,100536.50
2023-01-30T10:21:04.158Z,100532.22
2023-01-30T10:24:27.131Z,100520.12
2023-01-30T10:27:30.849Z,100514.03
2023-01-30T10:30:34.329Z,100508.97
2023-01-30T10:33:43.264Z,100504.59
2023-01-30T10:37:08.495Z,100492.56
2023-01-30T10:40:20.981Z,100485.72
2023-01-30T10:43:30.027Z,100473.56
2023-01-30T10:46:51.252Z,100470.94
2023-01-30T10:49:56.915Z,100459.66
2023-01-30T10:53:10.016Z,100446.03
2023-01-30T10:56:18.710Z,100441.88
2023-01-30T10:59:23.440Z,100430.09
2023-01-30T11:02:35.058Z,100428.38
2023-01-30T11:05:44.593Z,100421.56
2023-01-30T11:08:47.337Z,100413.94
2023-01-30T11:11:54.100Z,100402.78
2023-01-30T11:14:58.817Z,100397.63
2023-01-30T11:18:40.420Z,100393.28
2023-01-30T11:21:42.381Z,100380.38
2023-01-30T11:24:46.523Z,100389.66
2023-01-30T11:27:58.104Z,100374.94
2023-01-30T11:31:01.251Z,100363.06
2023-01-30T11:34:13.129Z,100368.22
2023-01-30T11:37:25.456Z,100360.50
2023-01-30T11:40:29.271Z,100357.28
2023-01-30T11:43:33.020Z,100346.03
2023-01-30T11:46:38.232Z,100332.31
2023-01-30T11:49:46.246Z,100328.87
2023-01-30T11:52:54.165Z,100331.47
2023-01-30T11:56:05.256Z,100328.87
2023-01-30T11:59:25.258Z,100322.84
2023-01-30T12:02:32.555Z,100324.69
2023-01-30T12:05:42.325Z,100327.34
2023-01-30T12:08:44.795Z,100312.91
2023-01-30T12:11:47.518Z,100312.06
2023-01-30T12:14:52.150Z,100311.25
2023-01-30T12:17:54.777Z,100296.72
2023-01-30T12:20:57.166Z,100309.56
2023-01-30T12:24:18.012Z,100295.03
2023-01-30T12:27:25.034Z,100271.97
2023-01-30T12:30:36.933Z,100262.56
2023-01-30T12:33:39.805Z,100241.19
2023-01-30T12:36:50.218Z,100229.22
2023-01-30T12:40:04.663Z,100231.84
2023-01-30T12:43:10.107Z,100227.53
2023-01-30T12:46:23.286Z,100222.44
2023-01-30T12:49:48.779Z,100219.00
2023-01-30T12:52:51.051Z,100239.56
2023-01-30T12:55:53.691Z,100239.59
2023-01-30T12:58:59.178Z,100242.97
2023-01-30T13:02:07.789Z,100231.78
2023-01-30T13:05:34.020Z,100228.41
2023-01-30T13:08:45.868Z,100212.97
2023-01-30T13:11:54.283Z,100207.94
2023-01-30T13:14:56.875Z,100208.75
2023-01-30T13:18:00.043Z,100189.09
2023-01-30T13:21:35.357Z,100179.72
2023-01-30T13:24:52.923Z,100173.72
2023-01-30T13:27:58.399Z,100173.72
2023-01-30T13:31:01.829Z,100173.81
2023-01-30T13:34:27.599Z,100174.66
2023-01-30T13:37:32.001Z,100170.38
2023-01-30T13:40:39.404Z,100177.19
2023-01-30T13:43:45.339Z,100171.16
2023-01-30T13:46:49.795Z,100178.00
2023-01-30T13:50:10.882Z,100172.00
2023-01-30T13:53:34.075Z,100177.84
2023-01-30T13:56:41.913Z,100165.91
2023-01-30T13:59:53.961Z,100161.53
2023-01-30T14:03:05.705Z,100158.91
2023-01-30T14:06:26.953Z,100157.31
2023-01-30T14:09:29.874Z,100144.44
2023-01-30T14:12:38.769Z,100147.88
2023-01-30T14:15:53.213Z,100147.03
2023-01-30T14:18:56.138Z,100147.81
2023-01-30T14:21:59.982Z,100151.19
2023-01-30T14:25:21.683Z,100158.87
2023-01-30T14:28:24.186Z,100166.59
2023-01-30T14:31:46.844Z,100166.56
2023-01-30T14:35:01.566Z,100180.31
2023-01-30T14:38:09.843Z,100174.28
2023-01-30T14:41:14.962Z,100169.16
2023-01-30T14:44:37.575Z,100171.72
2023-01-30T14:47:39.890Z,100165.81
2023-01-30T14:50:49.341Z,100171.91
2023-01-30T14:54:23.434Z,100177.97
2023-01-30T14:57:32.744Z,100167.72
2023-01-30T15:00:37.828Z,100168.63
2023-01-30T15:03:41.917Z,100166.97
2023-01-30T15:06:46.174Z,100163.56
2023-01-30T15:09:57.446Z,100167.00
2023-01-30T15:13:08.819Z,100166.19
2023-01-30T15:16:40.562Z,100166.16
2023-01-30T15:20:00.264Z,100172.16
2023-01-30T15:23:26.059Z,100166.16
2023-01-30T15:26:37.462Z,100167.00
2023-01-30T15:29:59.309Z,100161.88
2023-01-30T15:33:31.881Z,100153.34
2023-01-30T15:36:35.950Z,100145.69
2023-01-30T15:39:38.257Z,100163.63
2023-01-30T15:42:47.282Z,100165.31
2023-01-30T15:46:13.249Z,100172.19
2023-01-30T15:49:28.199Z,100185.84
2023-01-30T15:52:45.016Z,100175.63
2023-01-30T15:55:47.945Z,100164.53
2023-01-30T15:58:54.072Z,100173.06
2023-01-30T16:02:00.871Z,100167.13
2023-01-30T16:05:05.060Z,100173.97
2023-01-30T16:08:18.045Z,100181.66
2023-01-30T16:11:36.827Z,100192.75
2023-01-30T16:14:39.504Z,100182.50
2023-01-30T16:17:43.391Z,100172.25
2023-01-30T16:21:00.194Z,100180.81
2023-01-30T16:24:03.145Z,100188.50
2023-01-30T16:27:07.848Z,100183.37
2023-01-30T16:30:10.887Z,100190.19
2023-01-30T16:33:17.249Z,100194.47
2023-01-30T16:36:19.860Z,100202.19
2023-01-30T16:39:40.379Z,100207.28
2023-01-30T16:42:56.033Z,100203.00
2023-01-30T16:46:18.802Z,100189.34
2023-01-30T16:49:24.303Z,100203.00
2023-01-30T16:52:31.472Z,100198.75
2023-01-30T16:55:35.440Z,100198.75
2023-01-30T16:58:38.651Z,100187.66
2023-01-30T17:01:41.743Z,100186.78
2023-01-30T17:04:44.479Z,100177.38
2023-01-30T17:07:48.060Z,100182.53
2023-01-30T17:10:52.654Z,100189.34
2023-01-30T17:14:18.980Z,100185.94
2023-01-30T17:17:21.366Z,100174.84
2023-01-30T17:20:31.454Z,100179.09
2023-01-30T17:23:34.197Z,100177.38
2023-01-30T17:26:39.701Z,100173.09
2023-01-30T17:29:45.516Z,100165.41
2023-01-30T17:32:50.667Z,100159.41
2023-01-30T17:35:53.157Z,100161.94
2023-01-30T17:38:57.574Z,100177.31
2023-01-30T17:42:00.785Z,100179.00
2023-01-30T17:45:04.500Z,100175.56
2023-01-30T17:48:07.388Z,100168.69
2023-01-30T17:51:16.406Z,100172.13
2023-01-30T17:54:20.534Z,100164.41
2023-01-30T17:57:25.141Z,100162.69
2023-01-30T18:00:28.609Z,100155.00
2023-01-30T18:03:32.594Z,100167.81
2023-01-30T18:06:36.830Z,100170.41
2023-01-30T18:09:39.755Z,100176.34
2023-01-30T18:12:42.793Z,100172.91
2023-01-30T18:15:45.389Z,100177.16
2023-01-30T18:18:47.973Z,100183.97
2023-01-30T18:21:51.144Z,100180.53
2023-01-30T18:24:54.276Z,100177.09
2023-01-30T18:27:56.867Z,100172.78
2023-01-30T18:30:59.820Z,100174.53
2023-01-30T18:34:02.887Z,100172.78
2023-01-30T18:37:05.541Z,100174.53
2023-01-30T18:40:09.488Z,100188.22
2023-01-30T18:43:12.123Z,100189.13
2023-01-30T18:46:16.053Z,100187.41
2023-01-30T18:49:18.779Z,100183.13
2023-01-30T18:52:21.750Z,100186.53
2023-01-30T18:55:25.678Z,100183.09
2023-01-30T18:58:32.419Z,100177.97
2023-01-30T19:01:38.609Z,100178.78
2023-01-30T19:04:41.493Z,100183.03
2023-01-30T19:07:44.137Z,100184.75
2023-01-30T19:10:47.190Z,100181.31
2023-01-30T19:13:49.851Z,100184.78
2023-01-30T19:16:53.036Z,100194.19
2023-01-30T19:19:57.353Z,100183.03
2023-01-30T19:23:00.244Z,100187.28
2023-01-30T19:26:03.048Z,100184.66
2023-01-30T19:29:06.600Z,100183.69
2023-01-30T19:32:09.641Z,100191.38
2023-01-30T19:35:12.470Z,100176.84
2023-01-30T19:38:16.010Z,100180.28
2023-01-30T19:41:24.355Z,100178.53
2023-01-30T19:44:27.232Z,100187.00
2023-01-30T19:47:30.211Z,100188.66
2023-01-30T19:50:32.802Z,100180.94
2023-01-30T19:53:35.776Z,100196.34
2023-01-30T19:56:41.884Z,100198.03
2023-01-30T19:59:45.342Z,100198.88
2023-01-30T20:02:49.983Z,100198.03
2023-01-30T20:05:53.050Z,100187.78
2023-01-30T20:08:59.910Z,100186.94
2023-01-30T20:12:02.979Z,100189.50
2023-01-30T20:15:05.718Z,100173.25
2023-01-30T20:18:08.599Z,100178.41
2023-01-30T20:21:12.287Z,100175.81
2023-01-30T20:24:15.600Z,100175.75
2023-01-30T20:27:18.651Z,100163.72
2023-01-30T20:30:22.271Z,100175.72
2023-01-30T20:33:25.109Z,100165.41
2023-01-30T20:36:28.161Z,100173.13
2023-01-30T20:39:31.247Z,100171.41
2023-01-30T20:42:34.219Z,100180.03
2023-01-30T20:45:37.393Z,100175.72
2023-01-30T20:48:40.618Z,100170.59
2023-01-30T20:51:43.416Z,100172.28
2023-01-30T20:54:46.339Z,100166.31
2023-01-30T20:57:49.032Z,100165.38
2023-01-30T21:00:52.296Z,100167.97
2023-01-30T21:03:55.099Z,100168.75
2023-01-30T21:06:58.094Z,100163.56
2023-01-30T21:10:01.100Z,100160.22
2023-01-30T21:13:04.320Z,100165.34
2023-01-30T21:16:06.782Z,100173.88
2023-01-30T21:19:13.768Z,100170.50
2023-01-30T21:22:16.819Z,100164.50
2023-01-30T21:25:19.980Z,100194.41
2023-01-30T21:28:23.088Z,100188.38
2023-01-30T21:31:26.673Z,100203.84
2023-01-30T21:34:29.135Z,100197.94
2023-01-30T21:37:50.254Z,100186.06
2023-01-30T21:41:14.425Z,100183.63
2023-01-30T21:44:17.849Z,100175.16
2023-01-30T21:47:25.945Z,100175.19
2023-01-30T21:50:28.970Z,100184.62
2023-01-30T21:53:33.468Z,100182.09
2023-01-30T21:56:36.723Z,100189.78
2023-01-30T21:59:39.154Z,100179.56
2023-01-30T22:02:41.826Z,100179.59
2023-01-30T22:05:45.476Z,100188.12
2023-01-30T22:08:47.795Z,100181.31
2023-01-30T22:11:51.208Z,100201.06
2023-01-30T22:14:53.564Z,100196.72
2023-01-30T22:17:56.309Z,100195.84
2023-01-30T22:21:02.953Z,100191.47
2023-01-30T22:24:07.612Z,100177.75
2023-01-30T22:27:10.036Z,100174.25
2023-01-30T22:30:12.963Z,100175.09
2023-01-30T22:33:15.431Z,100177.72
2023-01-30T22:36:18.300Z,100173.47
2023-01-30T22:39:20.632Z,100162.44
2023-01-30T22:42:23.329Z,100162.50
2023-01-30T22:45:25.707Z,100174.47
2023-01-30T22:48:29.340Z,100166.75
2023-01-30T22:51:33.264Z,100155.66
2023-01-30T22:54:36.192Z,100155.66
2023-01-30T22:57:38.578Z,100153.06
2023-01-30T23:00:41.512Z,100161.63
2023-01-30T23:03:44.736Z,100146.06
2023-01-30T23:06:48.080Z,100158.87
2023-01-30T23:09:50.470Z,100152.91
2023-01-30T23:13:08.374Z,100152.87
2023-01-30T23:16:11.236Z,100152.75
2023-01-30T23:19:14.195Z,100155.31
2023-01-30T23:22:16.771Z,100151.06
2023-01-30T23:25:19.601Z,100138.28
2023-01-30T23:28:22.125Z,100145.13
2023-01-30T23:31:26.217Z,100141.75
2023-01-30T23:34:28.633Z,100141.66
2023-01-30T23:37:50.280Z,100151.91
2023-01-30T23:40:52.791Z,100165.50
2023-01-30T23:43:55.883Z,100150.88
2023-01-30T23:46:58.217Z,100159.50
2023-01-30T23:50:00.971Z,100155.28
2023-01-30T23:53:04.645Z,100150.25
2023-01-30T23:56:08.232Z,100146.97
2023-01-30T23:59:13.221Z,100133.34
